Time;durP1;ratioP1;P1;durP2;ratioP2;P2;SDS_P1;SDS_P2;PMS_P1;PMS_P2;Temp;Humidity;BMP_temperature;BMP_pressure;BME280_temperature;BME280_humidity;BME280_pressure;Samples;Min_cycle;Max_cycle;Signal;HPM_P1;HPM_P2
2022/01/01 00:01:36;;;;;;;15.83;9.67;;;13.20;99.90;;;;;;5051675;28;20207;-72
2022/01/01 00:04:04;;;;;;;13.70;9.43;;;13.20;99.90;;;;;;5050227;28;20619;-72
2022/01/01 00:06:31;;;;;;;15.17;9.63;;;13.20;99.90;;;;;;5052655;28;20211;-72
2022/01/01 00:08:58;;;;;;;18.87;11.50;;;13.20;99.90;;;;;;5051473;28;20206;-72
2022/01/01 00:11:25;;;;;;;18.73;10.53;;;13.20;99.90;;;;;;5051849;28;20199;-71
2022/01/01 00:13:52;;;;;;;14.43;10.03;;;13.20;99.90;;;;;;5051464;28;20572;-71
2022/01/01 00:16:19;;;;;;;16.07;10.63;;;13.20;99.90;;;;;;5052533;28;20207;-71
2022/01/01 00:18:46;;;;;;;18.23;11.20;;;13.20;99.90;;;;;;5051615;28;20211;-72
2022/01/01 00:21:14;;;;;;;15.83;10.73;;;13.20;99.90;;;;;;5052573;28;20206;-71
2022/01/01 00:23:41;;;;;;;17.83;10.17;;;13.20;99.90;;;;;;5051654;28;20230;-72
2022/01/01 00:26:08;;;;;;;18.23;11.57;;;13.20;99.90;;;;;;5052067;28;20298;-72
2022/01/01 00:28:35;;;;;;;19.77;11.47;;;13.20;99.90;;;;;;5052007;28;20211;-72
2022/01/01 00:31:02;;;;;;;17.87;10.30;;;13.20;99.90;;;;;;5050461;28;20195;-72
2022/01/01 00:33:30;;;;;;;17.60;10.97;;;13.20;99.90;;;;;;5050432;28;20313;-72
2022/01/01 00:35:57;;;;;;;19.17;11.80;;;13.20;99.90;;;;;;5050420;28;20521;-72
2022/01/01 00:38:26;;;;;;;20.03;12.33;;;13.20;99.90;;;;;;5052415;28;20616;-72
2022/01/01 00:40:53;;;;;;;20.03;11.67;;;13.20;99.90;;;;;;5051549;28;20210;-72
2022/01/01 00:43:20;;;;;;;21.17;12.40;;;13.20;99.90;;;;;;5049794;28;20226;-72
2022/01/01 00:45:47;;;;;;;19.83;12.83;;;13.10;99.90;;;;;;5051568;28;20254;-72
2022/01/01 00:48:14;;;;;;;18.17;13.73;;;13.10;99.90;;;;;;5051822;28;20211;-72
2022/01/01 00:50:41;;;;;;;20.67;13.13;;;13.10;99.90;;;;;;5051466;28;20233;-72
2022/01/01 00:53:08;;;;;;;22.17;12.00;;;13.10;99.90;;;;;;5047897;28;20547;-72
2022/01/01 00:55:36;;;;;;;21.73;12.13;;;13.10;99.90;;;;;;5052495;28;20213;-72
2022/01/01 00:58:03;;;;;;;18.00;11.97;;;13.10;99.90;;;;;;5051297;28;20665;-72
2022/01/01 01:00:30;;;;;;;18.87;11.30;;;13.10;99.90;;;;;;5051895;28;20217;-72
2022/01/01 01:02:57;;;;;;;20.77;12.77;;;13.20;99.90;;;;;;5051458;28;20294;-72
2022/01/01 01:05:24;;;;;;;21.57;12.37;;;13.10;99.90;;;;;;5052463;28;20293;-72
2022/01/01 01:07:50;;;;;;;20.03;12.10;;;13.10;99.90;;;;;;5052238;28;20202;-72
2022/01/01 01:10:17;;;;;;;21.23;13.53;;;13.20;99.90;;;;;;5052139;28;20505;-73
2022/01/01 01:12:48;;;;;;;21.13;13.53;;;13.20;99.90;;;;;;5050188;28;20467;-72
2022/01/01 01:15:18;;;;;;;23.17;14.07;;;13.10;99.90;;;;;;5041329;28;20282;-72
2022/01/01 01:17:46;;;;;;;21.93;13.43;;;13.10;99.90;;;;;;5052629;28;20252;-72
2022/01/01 01:20:14;;;;;;;18.93;13.27;;;13.10;99.90;;;;;;5051343;28;20664;-72
2022/01/01 01:22:41;;;;;;;22.60;13.47;;;13.10;99.90;;;;;;5051219;28;20221;-72
2022/01/01 01:25:09;;;;;;;22.43;13.53;;;13.10;99.90;;;;;;5051551;28;20689;-72
2022/01/01 01:27:36;;;;;;;23.53;13.93;;;13.10;99.90;;;;;;5051981;28;20209;-73
2022/01/01 01:30:08;;;;;;;20.77;13.77;;;13.00;99.90;;;;;;5050866;28;20207;-72
2022/01/01 01:32:35;;;;;;;21.03;14.47;;;13.10;99.90;;;;;;5050561;28;20201;-72
2022/01/01 01:35:02;;;;;;;22.60;13.27;;;13.00;99.90;;;;;;5051493;28;20225;-72
2022/01/01 01:37:29;;;;;;;22.37;13.97;;;13.00;99.90;;;;;;5051422;28;20568;-72
2022/01/01 01:39:56;;;;;;;23.93;15.00;;;13.10;99.90;;;;;;5051430;28;20211;-72
2022/01/01 01:42:24;;;;;;;23.03;14.00;;;13.10;99.90;;;;;;5050961;28;20213;-72
2022/01/01 01:44:53;;;;;;;23.53;14.67;;;13.10;99.90;;;;;;5051329;28;20227;-72
2022/01/01 01:47:28;;;;;;;21.57;13.83;;;13.10;99.90;;;;;;5052073;28;20203;-72
2022/01/01 01:49:56;;;;;;;20.43;14.27;;;13.00;99.90;;;;;;5051286;28;20252;-72
2022/01/01 01:52:24;;;;;;;22.67;12.73;;;13.00;99.90;;;;;;5031335;28;20616;-72
2022/01/01 01:54:51;;;;;;;22.00;13.73;;;13.10;99.90;;;;;;5048982;28;20256;-72
2022/01/01 01:57:19;;;;;;;21.93;14.43;;;12.90;99.90;;;;;;5051496;28;20203;-72
2022/01/01 01:59:46;;;;;;;20.57;13.10;;;13.00;99.90;;;;;;5051397;28;20657;-72
2022/01/01 02:02:14;;;;;;;22.23;13.90;;;13.00;99.90;;;;;;5051183;28;20234;-72
2022/01/01 02:04:42;;;;;;;21.00;12.60;;;13.00;99.90;;;;;;5049302;28;20221;-72
2022/01/01 02:07:09;;;;;;;24.07;14.27;;;12.90;99.90;;;;;;5050896;28;20213;-72
2022/01/01 02:09:37;;;;;;;21.90;13.53;;;12.90;99.90;;;;;;5053171;28;20579;-72
2022/01/01 02:12:05;;;;;;;23.73;13.73;;;12.90;99.90;;;;;;5041522;28;20202;-72
2022/01/01 02:14:49;;;;;;;21.60;13.20;;;12.90;99.90;;;;;;5053628;28;20653;-72
2022/01/01 02:17:16;;;;;;;23.13;13.83;;;12.90;99.90;;;;;;5043558;28;20199;-72
2022/01/01 02:19:54;;;;;;;20.97;12.80;;;12.90;99.90;;;;;;5054476;28;20207;-72
2022/01/01 02:22:23;;;;;;;20.73;12.30;;;12.90;99.90;;;;;;5054619;28;20214;-72
2022/01/01 02:24:50;;;;;;;21.97;13.87;;;12.90;99.90;;;;;;5055603;28;20231;-72
2022/01/01 02:27:18;;;;;;;22.80;13.87;;;12.90;99.90;;;;;;5054902;28;20195;-73
2022/01/01 02:29:46;;;;;;;22.00;13.40;;;12.90;99.90;;;;;;5053643;28;20613;-72
2022/01/01 02:32:15;;;;;;;23.30;14.27;;;12.90;99.90;;;;;;5053387;28;20316;-72
2022/01/01 02:34:43;;;;;;;24.27;14.33;;;12.90;99.90;;;;;;5049931;28;20279;-72
2022/01/01 02:37:09;;;;;;;23.30;15.17;;;12.90;99.90;;;;;;5053125;28;20581;-73
2022/01/01 02:39:38;;;;;;;23.10;14.27;;;12.90;99.90;;;;;;5053418;28;20199;-73
2022/01/01 02:42:08;;;;;;;23.10;14.60;;;12.90;99.90;;;;;;5051901;28;20191;-73
2022/01/01 02:44:35;;;;;;;24.10;14.97;;;12.90;99.90;;;;;;5052802;28;20215;-73
2022/01/01 02:47:02;;;;;;;22.97;14.10;;;12.90;99.90;;;;;;5049776;28;20199;-72
2022/01/01 02:49:29;;;;;;;22.60;14.67;;;12.90;99.90;;;;;;5052307;28;20217;-73
2022/01/01 02:51:55;;;;;;;25.07;14.90;;;12.90;99.90;;;;;;5053772;28;20199;-76
2022/01/01 02:54:22;;;;;;;23.87;15.10;;;12.90;99.90;;;;;;5050018;28;20653;-72
2022/01/01 02:56:50;;;;;;;24.43;15.30;;;12.90;99.90;;;;;;5050873;28;20293;-73
2022/01/01 02:59:17;;;;;;;20.93;14.27;;;12.90;99.90;;;;;;5051983;28;20213;-73
2022/01/01 03:01:44;;;;;;;24.73;14.93;;;12.80;99.90;;;;;;5051739;28;20203;-73
2022/01/01 03:04:11;;;;;;;22.50;14.87;;;12.80;99.90;;;;;;5051568;28;20223;-73
2022/01/01 03:06:38;;;;;;;24.30;14.67;;;12.90;99.90;;;;;;5051622;28;20202;-73
2022/01/01 03:09:05;;;;;;;21.37;13.60;;;12.90;99.90;;;;;;5047165;28;20195;-72
2022/01/01 03:11:32;;;;;;;26.83;14.93;;;12.90;99.90;;;;;;5048981;28;20294;-73
2022/01/01 03:14:00;;;;;;;24.17;14.17;;;12.90;99.90;;;;;;5050622;28;20238;-72
2022/01/01 03:16:27;;;;;;;23.73;14.57;;;12.80;99.90;;;;;;5050590;28;20573;-73
2022/01/01 03:18:54;;;;;;;25.33;13.27;;;12.90;99.90;;;;;;5049702;28;20546;-73
2022/01/01 03:21:21;;;;;;;22.30;12.77;;;12.90;99.90;;;;;;5050548;28;20203;-73
2022/01/01 03:23:47;;;;;;;21.00;14.27;;;12.90;99.90;;;;;;5050188;28;20199;-73
2022/01/01 03:26:14;;;;;;;23.97;13.90;;;12.90;99.90;;;;;;5050004;28;20241;-73
2022/01/01 03:28:41;;;;;;;20.00;12.90;;;12.80;99.90;;;;;;5051706;28;20293;-73
2022/01/01 03:31:09;;;;;;;21.27;13.43;;;12.80;99.90;;;;;;5047643;28;20200;-72
2022/01/01 03:33:36;;;;;;;21.57;13.17;;;12.80;99.90;;;;;;5051847;28;20286;-73
2022/01/01 03:36:04;;;;;;;24.20;12.80;;;12.80;99.90;;;;;;5052921;28;20656;-73
2022/01/01 03:38:31;;;;;;;20.30;12.10;;;12.80;99.90;;;;;;5049141;28;20737;-73
2022/01/01 03:40:58;;;;;;;22.43;13.27;;;12.80;99.90;;;;;;5052385;28;20564;-72
2022/01/01 03:43:25;;;;;;;20.70;13.03;;;12.80;99.90;;;;;;5050084;28;20210;-73
2022/01/01 03:45:52;;;;;;;23.43;13.83;;;12.80;99.90;;;;;;5051258;28;20598;-72
2022/01/01 03:48:20;;;;;;;23.10;13.83;;;12.80;99.90;;;;;;5046874;28;20208;-74
2022/01/01 03:50:47;;;;;;;22.07;12.17;;;12.80;99.90;;;;;;5048613;28;20660;-72
2022/01/01 03:53:14;;;;;;;21.77;12.20;;;12.80;99.90;;;;;;5051721;28;20217;-72
2022/01/01 03:55:41;;;;;;;20.93;12.20;;;12.80;99.90;;;;;;5052742;28;20256;-71
2022/01/01 03:58:07;;;;;;;21.87;13.43;;;12.80;99.90;;;;;;5053023;28;20206;-72
2022/01/01 04:00:36;;;;;;;23.20;12.47;;;12.80;99.90;;;;;;5051988;28;20624;-73
2022/01/01 04:03:08;;;;;;;22.13;12.57;;;12.80;99.90;;;;;;5052392;28;20261;-73
2022/01/01 04:05:37;;;;;;;21.80;12.67;;;12.80;99.90;;;;;;5046646;28;20223;-72
2022/01/01 04:08:05;;;;;;;20.20;11.83;;;12.80;99.90;;;;;;5051947;28;20597;-73
2022/01/01 04:10:32;;;;;;;24.10;12.60;;;12.70;99.90;;;;;;5051958;28;20199;-73
2022/01/01 04:12:59;;;;;;;20.30;12.80;;;12.70;99.90;;;;;;5052182;28;20290;-72
2022/01/01 04:15:26;;;;;;;23.03;14.13;;;12.70;99.90;;;;;;5051439;28;20252;-72
2022/01/01 04:17:57;;;;;;;21.03;11.93;;;12.80;99.90;;;;;;5050800;28;20637;-73
2022/01/01 04:20:24;;;;;;;23.63;12.93;;;12.70;99.90;;;;;;5050191;28;20286;-73
2022/01/01 04:22:53;;;;;;;21.30;11.90;;;12.70;99.90;;;;;;5048751;28;20207;-73
2022/01/01 04:25:20;;;;;;;19.90;12.17;;;12.70;99.90;;;;;;5051946;28;20585;-72
2022/01/01 04:27:47;;;;;;;26.43;13.70;;;12.70;99.90;;;;;;5050112;28;20638;-72
2022/01/01 04:30:14;;;;;;;23.07;12.20;;;12.80;99.90;;;;;;5051031;28;20661;-72
2022/01/01 04:32:41;;;;;;;20.73;12.47;;;12.80;99.90;;;;;;5051374;28;20200;-73
2022/01/01 04:35:09;;;;;;;24.73;13.20;;;12.80;99.90;;;;;;5051721;28;20725;-73
2022/01/01 04:37:37;;;;;;;21.90;13.33;;;12.90;99.90;;;;;;5048631;28;20203;-73
2022/01/01 04:40:07;;;;;;;19.60;12.43;;;12.90;99.90;;;;;;5050770;28;20209;-72
2022/01/01 04:42:34;;;;;;;23.70;12.67;;;12.80;99.90;;;;;;5049521;28;20207;-73
2022/01/01 04:45:01;;;;;;;22.70;12.60;;;12.80;99.90;;;;;;5050214;28;20232;-72
2022/01/01 04:47:28;;;;;;;19.03;12.43;;;12.70;99.90;;;;;;5050215;28;20195;-72
2022/01/01 04:49:55;;;;;;;22.67;12.00;;;12.80;99.90;;;;;;5050488;28;20196;-72
2022/01/01 04:52:22;;;;;;;24.73;12.77;;;12.70;99.90;;;;;;5050536;28;20199;-72
2022/01/01 04:54:50;;;;;;;23.33;12.60;;;12.70;99.90;;;;;;5053037;28;20195;-72
2022/01/01 04:57:18;;;;;;;22.97;13.37;;;12.70;99.90;;;;;;5050135;28;20639;-72
2022/01/01 04:59:45;;;;;;;20.93;12.80;;;12.80;99.90;;;;;;5049524;28;20294;-72
2022/01/01 05:02:11;;;;;;;23.87;12.60;;;12.70;99.90;;;;;;5049614;28;20213;-73
2022/01/01 05:04:38;;;;;;;22.70;12.70;;;12.70;99.90;;;;;;5050935;28;20219;-73
2022/01/01 05:07:07;;;;;;;21.23;13.13;;;12.80;99.90;;;;;;5048937;28;20535;-73
2022/01/01 05:09:34;;;;;;;25.00;13.30;;;12.70;99.90;;;;;;5048448;28;20213;-74
2022/01/01 05:12:01;;;;;;;22.37;13.23;;;12.70;99.90;;;;;;5047774;28;20199;-73
2022/01/01 05:14:29;;;;;;;23.23;12.80;;;12.60;99.90;;;;;;5050811;28;20205;-73
2022/01/01 05:16:57;;;;;;;24.40;12.30;;;12.70;99.90;;;;;;5047620;28;20199;-72
2022/01/01 05:19:24;;;;;;;20.00;11.63;;;12.70;99.90;;;;;;5049786;28;20211;-72
2022/01/01 05:21:55;;;;;;;19.10;12.47;;;12.70;99.90;;;;;;5051289;28;20209;-73
2022/01/01 05:24:22;;;;;;;21.90;11.83;;;12.70;99.90;;;;;;5050413;28;20222;-73
2022/01/01 05:26:49;;;;;;;20.50;11.93;;;12.70;99.90;;;;;;5048924;28;20578;-73
2022/01/01 05:29:16;;;;;;;23.80;12.80;;;12.80;99.90;;;;;;5047290;28;20207;-72
2022/01/01 05:31:45;;;;;;;23.43;12.70;;;12.70;99.90;;;;;;5048374;28;20591;-73
2022/01/01 05:34:11;;;;;;;20.47;11.73;;;12.60;99.90;;;;;;5048155;28;20210;-73
2022/01/01 05:36:38;;;;;;;20.90;12.13;;;12.60;99.90;;;;;;5049773;28;20582;-72
2022/01/01 05:39:05;;;;;;;23.10;12.00;;;12.50;99.90;;;;;;5049960;28;20195;-73
2022/01/01 05:41:32;;;;;;;22.77;11.53;;;12.50;99.90;;;;;;5047846;28;20205;-73
2022/01/01 05:43:59;;;;;;;20.23;11.67;;;12.50;99.90;;;;;;5049849;28;20198;-73
2022/01/01 05:46:29;;;;;;;22.20;12.33;;;12.50;99.90;;;;;;5049427;28;20229;-73
2022/01/01 05:48:57;;;;;;;22.97;12.97;;;12.50;99.90;;;;;;5046217;28;20210;-73
2022/01/01 05:51:24;;;;;;;20.40;12.37;;;12.50;99.90;;;;;;5050175;28;20203;-72
2022/01/01 05:53:51;;;;;;;21.30;12.03;;;12.60;99.90;;;;;;5049248;28;20195;-73
2022/01/01 05:56:18;;;;;;;21.97;13.83;;;12.50;99.90;;;;;;5047789;28;20564;-73
2022/01/01 05:58:44;;;;;;;22.47;12.10;;;12.60;99.90;;;;;;5050369;28;20207;-73
2022/01/01 06:01:12;;;;;;;22.43;11.67;;;12.50;99.90;;;;;;5048981;28;20206;-72
2022/01/01 06:03:38;;;;;;;24.13;12.77;;;12.50;99.90;;;;;;5050578;28;20626;-72
2022/01/01 06:06:07;;;;;;;21.37;12.13;;;12.50;99.90;;;;;;5049875;28;20223;-72
2022/01/01 06:08:33;;;;;;;24.67;14.37;;;12.50;99.90;;;;;;5049198;28;20203;-73
2022/01/01 06:11:01;;;;;;;24.00;14.23;;;12.50;99.90;;;;;;5049593;28;20291;-72
2022/01/01 06:13:28;;;;;;;24.37;14.87;;;12.50;99.90;;;;;;5049638;28;20578;-72
2022/01/01 06:15:55;;;;;;;24.97;14.80;;;12.50;99.90;;;;;;5049874;28;20575;-73
2022/01/01 06:18:22;;;;;;;23.50;14.97;;;12.50;99.90;;;;;;5049537;28;20230;-72
2022/01/01 06:20:49;;;;;;;30.03;16.57;;;12.50;99.90;;;;;;5049571;28;20195;-72
2022/01/01 06:23:18;;;;;;;27.33;16.83;;;12.40;99.90;;;;;;5049002;28;20207;-72
2022/01/01 06:25:45;;;;;;;27.53;17.43;;;12.40;99.90;;;;;;5050331;28;20219;-73
2022/01/01 06:28:12;;;;;;;28.47;17.13;;;12.40;99.90;;;;;;5047704;28;20709;-73
2022/01/01 06:30:39;;;;;;;27.13;16.83;;;12.40;99.90;;;;;;5049744;28;20215;-72
2022/01/01 06:33:13;;;;;;;34.17;18.00;;;12.40;99.90;;;;;;5048540;28;20205;-73
2022/01/01 06:35:41;;;;;;;29.17;18.13;;;12.50;99.90;;;;;;5046361;28;20200;-76
2022/01/01 06:38:08;;;;;;;29.17;17.23;;;12.40;99.90;;;;;;5049678;28;20611;-73
2022/01/01 06:40:39;;;;;;;30.03;17.63;;;12.40;99.90;;;;;;5050940;28;20243;-73
2022/01/01 06:43:07;;;;;;;29.73;18.27;;;12.40;99.90;;;;;;5049821;28;20596;-73
2022/01/01 06:45:34;;;;;;;34.70;17.27;;;12.40;99.90;;;;;;5049589;28;20268;-73
2022/01/01 06:48:01;;;;;;;29.87;17.30;;;12.40;99.90;;;;;;5050558;28;20206;-73
2022/01/01 06:50:28;;;;;;;32.63;17.97;;;12.40;99.90;;;;;;5050018;28;20199;-73
2022/01/01 06:52:55;;;;;;;32.47;19.80;;;12.50;99.90;;;;;;5045735;28;20203;-73
2022/01/01 06:55:22;;;;;;;35.70;18.37;;;12.40;99.90;;;;;;5053187;28;20201;-73
2022/01/01 06:57:50;;;;;;;31.50;19.00;;;12.50;99.90;;;;;;5052027;28;20234;-73
2022/01/01 07:00:18;;;;;;;30.77;17.77;;;12.50;99.90;;;;;;5054997;28;20202;-73
2022/01/01 07:02:46;;;;;;;32.47;18.57;;;12.50;99.90;;;;;;5051669;28;20218;-73
2022/01/01 07:05:14;;;;;;;29.13;18.37;;;12.50;99.90;;;;;;5052691;28;20579;-73
2022/01/01 07:07:41;;;;;;;29.33;17.53;;;12.50;99.90;;;;;;5053367;28;20195;-73
2022/01/01 07:10:10;;;;;;;31.03;18.20;;;12.50;99.90;;;;;;5053602;28;20638;-73
2022/01/01 07:12:37;;;;;;;40.80;23.37;;;12.50;99.90;;;;;;5048801;28;20205;-74
2022/01/01 07:15:07;;;;;;;35.80;19.77;;;12.50;99.90;;;;;;5049846;28;20199;-73
2022/01/01 07:17:34;;;;;;;30.47;17.70;;;12.50;99.90;;;;;;5052266;28;20387;-73
2022/01/01 07:20:01;;;;;;;33.70;17.70;;;12.50;99.90;;;;;;5051715;28;20703;-73
2022/01/01 07:22:28;;;;;;;36.80;17.47;;;12.60;99.90;;;;;;5048909;28;20212;-73
2022/01/01 07:24:54;;;;;;;28.37;17.10;;;12.60;99.90;;;;;;5046305;28;20203;-73
2022/01/01 07:27:21;;;;;;;30.00;17.47;;;12.60;99.90;;;;;;5052227;28;20209;-73
2022/01/01 07:29:48;;;;;;;32.67;17.67;;;12.60;99.90;;;;;;5053256;28;20767;-73
2022/01/01 07:32:17;;;;;;;32.13;17.70;;;12.60;99.90;;;;;;5052789;28;20218;-73
2022/01/01 07:34:43;;;;;;;33.23;19.30;;;12.70;99.90;;;;;;5052774;28;20645;-73
2022/01/01 07:37:10;;;;;;;31.67;18.53;;;12.70;99.90;;;;;;5052835;28;20198;-73
2022/01/01 07:39:37;;;;;;;31.00;19.67;;;12.70;99.90;;;;;;5050468;28;20207;-73
2022/01/01 07:42:05;;;;;;;33.07;18.50;;;12.70;99.90;;;;;;5052270;28;20203;-73
2022/01/01 07:44:32;;;;;;;32.80;19.77;;;12.80;99.90;;;;;;5051547;28;20202;-73
2022/01/01 07:46:58;;;;;;;34.83;19.80;;;12.80;99.90;;;;;;5053102;28;20669;-73
2022/01/01 07:49:27;;;;;;;35.83;20.67;;;12.80;99.90;;;;;;5052480;28;20206;-71
2022/01/01 07:51:53;;;;;;;34.27;21.43;;;12.80;99.90;;;;;;5052732;28;20201;-73
2022/01/01 07:54:20;;;;;;;34.63;20.37;;;12.80;99.90;;;;;;5049178;28;20286;-72
2022/01/01 07:56:47;;;;;;;34.17;20.50;;;12.90;99.90;;;;;;5052339;28;20667;-72
2022/01/01 07:59:14;;;;;;;35.93;21.37;;;12.90;99.90;;;;;;5049485;28;20210;-72
2022/01/01 08:01:43;;;;;;;35.07;21.53;;;12.90;99.90;;;;;;5052819;28;20309;-72
2022/01/01 08:04:10;;;;;;;34.67;21.17;;;12.90;99.90;;;;;;5051494;28;20203;-72
2022/01/01 08:06:41;;;;;;;37.07;22.47;;;12.90;99.90;;;;;;5051296;28;20223;-72
2022/01/01 08:09:08;;;;;;;33.73;21.00;;;12.90;99.90;;;;;;5045688;28;20225;-72
2022/01/01 08:11:35;;;;;;;34.17;20.80;;;12.90;99.90;;;;;;5052545;28;20213;-72
2022/01/01 08:14:02;;;;;;;30.20;20.77;;;12.90;99.90;;;;;;5048849;28;20206;-72
2022/01/01 08:16:28;;;;;;;36.03;21.73;;;13.00;99.90;;;;;;5052498;28;20558;-72
2022/01/01 08:18:55;;;;;;;32.27;20.07;;;12.90;99.90;;;;;;5051373;28;20194;-72
2022/01/01 08:21:22;;;;;;;32.73;21.03;;;13.00;99.90;;;;;;5051498;28;20209;-72
2022/01/01 08:23:51;;;;;;;34.60;20.37;;;12.90;99.90;;;;;;5050077;28;20507;-72
2022/01/01 08:26:17;;;;;;;29.97;19.43;;;12.90;99.90;;;;;;5047610;28;20223;-72
2022/01/01 08:28:44;;;;;;;32.90;20.13;;;12.90;99.90;;;;;;5051419;28;20217;-72
2022/01/01 08:31:11;;;;;;;34.50;19.47;;;12.90;99.90;;;;;;5052440;28;20199;-72
2022/01/01 08:33:38;;;;;;;30.83;18.73;;;13.00;99.90;;;;;;5050859;28;20325;-72
2022/01/01 08:36:05;;;;;;;35.50;20.10;;;13.00;99.90;;;;;;5052151;28;20198;-72
2022/01/01 08:38:32;;;;;;;30.77;19.63;;;13.10;99.90;;;;;;5049858;28;20203;-72
2022/01/01 08:41:01;;;;;;;31.27;20.00;;;13.10;99.90;;;;;;5050942;28;20199;-72
2022/01/01 08:43:28;;;;;;;30.13;19.97;;;13.10;99.90;;;;;;5050019;28;20199;-72
2022/01/01 08:45:55;;;;;;;29.57;18.63;;;13.10;99.90;;;;;;5049518;28;20222;-73
2022/01/01 08:48:22;;;;;;;28.70;17.83;;;13.10;99.90;;;;;;5050954;28;20653;-73
2022/01/01 08:50:48;;;;;;;29.23;18.23;;;13.10;99.90;;;;;;5051630;28;20203;-73
2022/01/01 08:53:16;;;;;;;28.70;18.23;;;13.10;99.90;;;;;;5049614;28;20202;-73
2022/01/01 08:55:43;;;;;;;27.50;17.90;;;13.10;99.90;;;;;;5050869;28;20265;-73
2022/01/01 08:58:12;;;;;;;30.10;19.57;;;13.10;99.90;;;;;;5048821;28;20207;-73
2022/01/01 09:00:38;;;;;;;35.80;18.23;;;13.10;99.90;;;;;;5051700;28;20199;-73
2022/01/01 09:03:05;;;;;;;30.03;18.17;;;13.20;99.90;;;;;;5050931;28;20787;-73
2022/01/01 09:05:32;;;;;;;29.03;17.43;;;13.10;99.90;;;;;;5050201;28;20199;-73
2022/01/01 09:07:59;;;;;;;29.70;17.30;;;13.10;99.90;;;;;;5050463;28;20206;-73
2022/01/01 09:10:26;;;;;;;30.30;17.83;;;13.20;99.90;;;;;;5051721;28;20237;-73
2022/01/01 09:12:53;;;;;;;28.03;17.00;;;13.20;99.90;;;;;;5050366;28;20199;-73
2022/01/01 09:15:21;;;;;;;29.23;16.83;;;13.20;99.90;;;;;;5050925;28;20214;-73
2022/01/01 09:17:48;;;;;;;31.17;18.23;;;13.20;99.90;;;;;;5050383;28;20289;-73
2022/01/01 09:20:15;;;;;;;27.27;17.40;;;13.20;99.90;;;;;;5050097;28;20549;-73
2022/01/01 09:22:41;;;;;;;25.47;16.07;;;13.20;99.90;;;;;;5049927;28;20215;-72
2022/01/01 09:25:08;;;;;;;32.70;17.30;;;13.20;99.90;;;;;;5051180;28;20208;-73
2022/01/01 09:27:35;;;;;;;27.60;16.80;;;13.20;99.90;;;;;;5050526;28;20246;-72
2022/01/01 09:30:02;;;;;;;29.23;16.50;;;13.30;99.90;;;;;;5051420;28;20209;-73
2022/01/01 09:32:30;;;;;;;28.97;17.73;;;13.20;99.90;;;;;;5050480;28;20199;-73
2022/01/01 09:34:57;;;;;;;28.80;17.47;;;13.20;99.90;;;;;;5046488;28;20213;-76
2022/01/01 09:37:25;;;;;;;32.90;18.97;;;13.30;99.90;;;;;;5050966;28;20289;-76
2022/01/01 09:39:52;;;;;;;29.20;17.90;;;13.30;99.90;;;;;;5051432;28;20206;-76
2022/01/01 09:42:21;;;;;;;26.87;18.20;;;13.30;99.90;;;;;;5049427;28;20243;-76
2022/01/01 09:44:48;;;;;;;33.40;19.60;;;13.30;99.90;;;;;;5049784;28;20210;-76
2022/01/01 09:47:16;;;;;;;36.53;18.83;;;13.40;99.90;;;;;;5051184;28;20214;-77
2022/01/01 09:49:44;;;;;;;31.57;18.33;;;13.40;99.90;;;;;;5049826;28;20209;-76
2022/01/01 09:52:13;;;;;;;29.60;18.67;;;13.40;99.90;;;;;;5050294;28;20206;-77
2022/01/01 09:54:40;;;;;;;28.57;19.57;;;13.50;99.90;;;;;;5045516;28;20217;-76
2022/01/01 09:57:07;;;;;;;28.13;18.60;;;13.50;99.90;;;;;;5048795;28;20206;-76
2022/01/01 09:59:34;;;;;;;30.27;19.27;;;13.50;99.90;;;;;;5048365;28;20212;-76
2022/01/01 10:02:02;;;;;;;30.30;17.60;;;13.50;99.90;;;;;;5050587;28;20209;-76
2022/01/01 10:04:41;;;;;;;28.27;17.70;;;13.50;99.90;;;;;;5050281;28;20302;-76
2022/01/01 10:07:10;;;;;;;29.07;17.27;;;13.50;99.90;;;;;;5048487;28;20584;-76
2022/01/01 10:09:38;;;;;;;25.20;15.00;;;13.50;99.90;;;;;;5050832;28;20203;-76
2022/01/01 10:12:06;;;;;;;28.17;15.50;;;13.50;99.90;;;;;;5050463;28;20195;-76
2022/01/01 10:14:37;;;;;;;22.43;14.43;;;13.50;99.90;;;;;;5048994;28;20202;-76
2022/01/01 10:17:15;;;;;;;23.17;13.10;;;13.50;99.90;;;;;;5046693;28;20669;-76
2022/01/01 10:19:42;;;;;;;21.87;12.70;;;13.50;99.90;;;;;;5047874;28;20211;-76
2022/01/01 10:22:13;;;;;;;24.00;12.33;;;13.60;99.90;;;;;;5050013;28;20221;-76
2022/01/01 10:27:44;;;;;;;21.77;11.97;;;13.50;99.90;;;;;;5045503;28;20233;-77
2022/01/01 10:30:18;;;;;;;19.90;10.60;;;13.60;99.90;;;;;;5049077;28;20622;-76
2022/01/01 10:33:00;;;;;;;21.40;10.63;;;13.60;99.90;;;;;;5051934;28;20754;-77
2022/01/01 10:35:27;;;;;;;21.70;10.73;;;13.60;99.90;;;;;;5051873;28;20218;-77
2022/01/01 10:37:56;;;;;;;19.50;9.63;;;13.60;99.90;;;;;;5053729;28;20195;-76
2022/01/01 10:40:26;;;;;;;23.47;11.37;;;13.70;99.90;;;;;;5054131;28;20646;-77
2022/01/01 10:42:54;;;;;;;20.23;10.10;;;13.70;99.90;;;;;;5050485;28;20203;-76
2022/01/01 10:45:35;;;;;;;16.80;9.50;;;13.70;99.90;;;;;;5054079;28;20241;-76
2022/01/01 10:48:22;;;;;;;22.70;10.37;;;13.80;99.90;;;;;;5054011;28;20215;-77
2022/01/01 10:50:50;;;;;;;20.80;10.10;;;13.80;99.90;;;;;;5049208;28;20677;-81
2022/01/01 10:53:21;;;;;;;17.87;9.43;;;13.90;99.90;;;;;;5051160;28;20676;-83
2022/01/01 10:55:51;;;;;;;17.53;8.70;;;14.00;99.90;;;;;;5049483;28;20298;-81
2022/01/01 10:58:20;;;;;;;19.07;9.40;;;14.00;99.90;;;;;;5050239;28;20217;-80
2022/01/01 11:00:47;;;;;;;20.27;9.63;;;14.10;99.90;;;;;;5050158;28;20241;-84
2022/01/01 11:03:18;;;;;;;23.00;11.33;;;14.10;99.90;;;;;;5050936;28;20223;-83
2022/01/01 11:05:47;;;;;;;19.47;9.63;;;14.20;99.90;;;;;;5049347;28;20210;-88
2022/01/01 11:08:14;;;;;;;19.47;10.23;;;14.10;99.90;;;;;;5050127;28;20581;-80
2022/01/01 11:10:43;;;;;;;19.60;8.90;;;14.20;99.90;;;;;;5047108;28;20206;-80
2022/01/01 11:13:11;;;;;;;16.83;8.80;;;14.20;99.90;;;;;;5049263;28;20199;-80
2022/01/01 11:15:38;;;;;;;17.33;8.97;;;14.20;99.90;;;;;;5050319;28;20203;-79
2022/01/01 11:18:06;;;;;;;15.00;8.07;;;14.20;99.90;;;;;;5048419;28;20205;-78
2022/01/01 11:20:34;;;;;;;18.83;8.17;;;14.20;99.90;;;;;;5048364;28;20215;-78
2022/01/01 11:23:04;;;;;;;13.40;7.00;;;14.30;99.90;;;;;;5048822;28;20222;-78
2022/01/01 11:25:33;;;;;;;13.70;7.40;;;14.30;99.90;;;;;;5050543;28;20213;-78
2022/01/01 11:28:03;;;;;;;14.30;6.50;;;14.20;99.90;;;;;;5050309;28;20222;-80
2022/01/01 11:30:32;;;;;;;16.07;6.70;;;14.20;99.90;;;;;;5051191;28;20554;-79
2022/01/01 11:33:06;;;;;;;16.77;7.77;;;14.20;99.90;;;;;;5050657;28;20237;-80
2022/01/01 11:35:35;;;;;;;12.27;6.60;;;14.20;99.90;;;;;;5046748;28;20201;-80
2022/01/01 11:38:05;;;;;;;13.73;6.47;;;14.20;99.90;;;;;;5048244;28;20215;-81
2022/01/01 11:40:57;;;;;;;16.67;6.87;;;14.30;99.90;;;;;;5047627;28;20203;-81
2022/01/01 11:43:38;;;;;;;13.17;6.77;;;14.30;99.90;;;;;;5039537;28;20230;-82
2022/01/01 11:46:11;;;;;;;17.97;6.20;;;14.40;99.90;;;;;;5047217;28;20225;-81
2022/01/01 11:48:51;;;;;;;13.60;5.90;;;14.50;99.90;;;;;;5050878;28;20659;-82
2022/01/01 11:51:38;;;;;;;17.17;6.50;;;14.60;99.90;;;;;;5049797;28;20214;-77
2022/01/01 11:54:25;;;;;;;12.03;5.20;;;14.60;99.90;;;;;;5049524;28;20206;-83
2022/01/01 11:57:11;;;;;;;10.63;5.10;;;14.60;99.90;;;;;;5048374;28;20202;-83
2022/01/01 12:00:00;;;;;;;10.80;5.73;;;14.70;99.90;;;;;;5047955;28;20207;-77
2022/01/01 12:02:36;;;;;;;12.60;5.37;;;14.70;99.90;;;;;;5046708;28;20574;-84
2022/01/01 12:05:18;;;;;;;12.60;5.13;;;14.80;99.90;;;;;;5050183;28;20194;-72
2022/01/01 12:07:49;;;;;;;11.13;5.10;;;15.10;99.90;;;;;;5052580;28;20230;-73
2022/01/01 12:10:22;;;;;;;9.80;5.20;;;15.30;99.90;;;;;;5048679;28;20203;-79
2022/01/01 12:12:51;;;;;;;14.33;5.17;;;15.10;99.90;;;;;;5046037;28;20207;-80
2022/01/01 12:15:29;;;;;;;12.93;5.13;;;15.10;99.90;;;;;;5048529;28;20218;-81
2022/01/01 12:17:59;;;;;;;10.97;4.97;;;15.20;99.90;;;;;;5049604;28;20715;-81
2022/01/01 12:20:29;;;;;;;8.40;4.53;;;15.20;99.90;;;;;;5047990;28;20210;-81
2022/01/01 12:22:57;;;;;;;13.47;4.90;;;15.20;99.90;;;;;;5047767;28;20235;-83
2022/01/01 12:25:27;;;;;;;11.05;4.72;;;15.20;99.90;;;;;;5042171;28;20210;-82
2022/01/01 12:27:56;;;;;;;14.10;5.13;;;15.10;99.90;;;;;;5048611;28;20625;-82
2022/01/01 12:30:45;;;;;;;9.53;4.30;;;15.00;99.90;;;;;;5044008;28;20320;-79
2022/01/01 12:33:24;;;;;;;14.17;5.40;;;15.00;99.90;;;;;;5048944;28;20582;-79
2022/01/01 12:35:53;;;;;;;10.87;5.07;;;15.00;99.90;;;;;;5041900;28;20321;-81
2022/01/01 12:38:25;;;;;;;12.10;4.63;;;15.00;99.90;;;;;;5047755;28;20238;-82